Siam — SGIP — position and weather

sailwx.info

Track history (hours):
 
Tides and Currents Weather Stations Pressure Air Temp Water Temp Dewpoint Dewpoint Depression Visibility Wind Speed Wind Dir Waves Ship Positions

Siam

Last reported at 2016-Aug-31 22:31 UTC. Time now 2016-Aug-31 23:31 UTC.
Position N 55°60' E 012°45'.

Length 22 m.

Type: Passenger vessel. MMSI: 265572320.

Date/timePositionNaut miles runAvg speedWind from/ knotsBaromVisibWave heightAir tempDewpointWater temp
2016-Aug-31 22:31N 55°60' E 012°45'0 0.0
2016-Aug-31 21:31N 55°60' E 012°45'0 0.0
2016-Aug-31 20:31N 55°60' E 012°45'0 0.0
2016-Aug-31 19:28N 55°60' E 012°45'0 0.0
2016-Aug-31 18:31N 55°60' E 012°45'2 2.2
2016-Aug-31 17:31N 55°59' E 012°41'0 0.4
2016-Aug-31 16:33N 55°58' E 012°41'2 2.4
2016-Aug-31 15:32N 55°56' E 012°42'4 3.8
2016-Aug-31 14:31N 55°60' E 012°45'0 0.0
2016-Aug-31 13:31N 55°60' E 012°45'0 0.0
2016-Aug-31 12:28N 55°60' E 012°45'0 0.0
2016-Aug-31 11:31N 55°60' E 012°45'0 0.0
2016-Aug-31 10:28N 55°60' E 012°45'0 0.0
2016-Aug-31 09:25N 55°60' E 012°45'0 0.0
2016-Aug-31 08:31N 55°60' E 012°45'0 0.0
2016-Aug-31 07:31N 55°60' E 012°45'0 0.0
2016-Aug-31 06:31N 55°60' E 012°45'0 0.0
2016-Aug-31 05:31N 55°60' E 012°45'0 0.0
2016-Aug-31 04:31N 55°60' E 012°45'0 0.0
2016-Aug-31 03:31N 55°60' E 012°45'0 0.0
2016-Aug-31 02:31N 55°60' E 012°45'0 0.0
2016-Aug-31 01:31N 55°60' E 012°45'0 0.0
2016-Aug-31 00:31N 55°60' E 012°45'0 0.0
2016-Aug-30 23:31N 55°60' E 012°45'0 0.0
2016-Aug-30 22:28N 55°60' E 012°45'0 0.0
2016-Aug-30 21:28N 55°60' E 012°45'0 0.0
2016-Aug-30 20:31N 55°60' E 012°45'0 0.0
2016-Aug-30 19:28N 55°60' E 012°45'0 0.0
2016-Aug-30 18:31N 55°60' E 012°45'5 5.3
2016-Aug-30 17:33N 55°54' E 012°44'0 0.2
2016-Aug-30 16:24N 55°54' E 012°44'2 2.0
2016-Aug-30 15:33N 55°56' E 012°42'4 3.6
2016-Aug-30 14:29N 55°60' E 012°45'0 0.0
2016-Aug-30 13:32N 55°60' E 012°45'0 0.0
2016-Aug-30 12:32N 55°60' E 012°45'0 0.0
2016-Aug-30 11:32N 55°60' E 012°45'0 0.0
2016-Aug-30 10:32N 55°60' E 012°45'0 0.0
2016-Aug-30 09:32N 55°60' E 012°45'0 0.0
2016-Aug-30 08:32N 55°60' E 012°45'0 0.0
2016-Aug-30 07:32N 55°60' E 012°45'0 0.0
2016-Aug-30 06:32N 55°60' E 012°45'0 0.0
2016-Aug-30 05:32N 55°60' E 012°45'0 0.0
2016-Aug-30 04:29N 55°60' E 012°45'0 0.0
2016-Aug-30 03:32N 55°60' E 012°45'0 0.0
2016-Aug-30 02:32N 55°60' E 012°45'0 0.0
2016-Aug-30 01:32N 55°60' E 012°45'0 0.0
2016-Aug-30 00:32N 55°60' E 012°45'0 0.0
2016-Aug-29 23:32N 55°60' E 012°45'0 0.0
2016-Aug-29 22:32N 55°60' E 012°45'0 0.0
2016-Aug-29 21:29N 55°60' E 012°45'0 0.0
2016-Aug-29 20:32N 55°60' E 012°45'0 0.0
2016-Aug-29 19:26N 55°60' E 012°45'0 0.0
2016-Aug-29 18:32N 55°60' E 012°45'0 0.0
2016-Aug-29 17:32N 55°60' E 012°45'0 0.0
2016-Aug-29 16:32N 55°60' E 012°45'0 0.0
2016-Aug-29 15:32N 55°60' E 012°45'0 0.0
2016-Aug-29 14:32N 55°60' E 012°45'0 0.0
2016-Aug-29 13:32N 55°60' E 012°45'0 0.0
2016-Aug-29 12:32N 55°60' E 012°45'0 0.0
2016-Aug-29 11:29N 55°60' E 012°45'0 0.0
2016-Aug-29 10:32N 55°60' E 012°45'0 0.0
2016-Aug-29 09:32N 55°60' E 012°45'0 0.0
2016-Aug-29 08:32N 55°60' E 012°45'0 0.0
2016-Aug-29 07:32N 55°60' E 012°45'0 0.0
2016-Aug-29 06:26N 55°60' E 012°45'0 0.0
2016-Aug-29 05:29N 55°60' E 012°45'0 0.0
2016-Aug-29 04:32N 55°60' E 012°45'0 0.0
2016-Aug-29 03:32N 55°60' E 012°45'0 0.0
2016-Aug-29 02:32N 55°60' E 012°45'0 0.0
2016-Aug-29 01:32N 55°60' E 012°45'0 0.0
2016-Aug-29 00:32N 55°60' E 012°45'0 0.0
2016-Aug-28 23:32N 55°60' E 012°45'0 0.0
2016-Aug-28 22:29N 55°60' E 012°45'0 0.0
2016-Aug-28 21:32N 55°60' E 012°45'0 0.0
2016-Aug-28 20:32N 55°60' E 012°45'0 0.0
2016-Aug-28 19:32N 55°60' E 012°45'0 0.0
2016-Aug-28 18:32N 55°60' E 012°45'0 0.0
2016-Aug-28 17:32N 55°60' E 012°45'0 0.0
2016-Aug-28 16:32N 55°60' E 012°45'0 0.0
2016-Aug-28 15:32N 55°60' E 012°45'0 0.0
2016-Aug-28 14:32N 55°60' E 012°45'0 0.0
2016-Aug-28 13:32N 55°60' E 012°45'0 0.0
2016-Aug-28 12:32N 55°60' E 012°45'2 2.5
2016-Aug-28 11:33N 55°59' E 012°40'0 0.5
2016-Aug-28 10:33N 55°59' E 012°41'4 3.9
2016-Aug-28 09:33N 55°55' E 012°40'0 0.2
2016-Aug-28 08:31N 55°55' E 012°39'2 2.3
2016-Aug-28 07:32N 55°56' E 012°43'1 0.6
2016-Aug-28 06:31N 55°57' E 012°42'3 3.4
2016-Aug-28 05:31N 55°60' E 012°45'0 0.0
2016-Aug-28 04:31N 55°60' E 012°45'0 0.0
2016-Aug-28 03:28N 55°60' E 012°45'0 0.0
2016-Aug-28 02:28N 55°60' E 012°45'0 0.0
2016-Aug-28 01:31N 55°60' E 012°45'0 0.0
2016-Aug-28 00:31N 55°60' E 012°45'0 0.0
2016-Aug-27 23:31N 55°60' E 012°45'0 0.0
2016-Aug-27 22:31N 55°60' E 012°45'0 0.0
2016-Aug-27 21:28N 55°60' E 012°45'0 0.0
2016-Aug-27 20:31N 55°60' E 012°45'0 0.0
2016-Aug-27 19:31N 55°60' E 012°45'0 0.0
2016-Aug-27 18:31N 55°60' E 012°45'0 0.0
2016-Aug-27 17:31N 55°60' E 012°45'0 0.0
2016-Aug-27 16:31N 55°60' E 012°45'0 0.0
2016-Aug-27 15:31N 55°60' E 012°45'0 0.0
2016-Aug-27 14:31N 55°60' E 012°45'0 0.0
2016-Aug-27 13:31N 55°60' E 012°45'0 0.0
2016-Aug-27 12:31N 55°60' E 012°45'0 0.0
2016-Aug-27 11:31N 55°60' E 012°45'0 0.0
2016-Aug-27 10:31N 55°60' E 012°45'4 4.0
2016-Aug-27 09:33N 55°56' E 012°42'0 0.2
2016-Aug-27 08:33N 55°56' E 012°42'0 0.3
2016-Aug-27 07:27N 55°56' E 012°42'0 0.4
2016-Aug-27 06:31N 55°56' E 012°42'4 2.0
2016-Aug-27 04:33N 55°60' E 012°45'0 0.0
2016-Aug-27 03:33N 55°60' E 012°45'0 0.0
2016-Aug-27 02:33N 55°60' E 012°45'0 0.0
2016-Aug-27 01:33N 55°60' E 012°45'0 0.0
2016-Aug-27 00:33N 55°60' E 012°45'0 0.0
2016-Aug-26 23:33N 55°60' E 012°45'0 0.0
2016-Aug-26 22:33N 55°60' E 012°45'0 0.0
2016-Aug-26 21:33N 55°60' E 012°45'0 0.0
2016-Aug-26 20:33N 55°60' E 012°45'0 0.0
2016-Aug-26 19:33N 55°60' E 012°45'0 0.0
2016-Aug-26 18:33N 55°60' E 012°45'0 0.0
2016-Aug-26 17:33N 55°60' E 012°45'0 0.0
2016-Aug-26 16:33N 55°60' E 012°45'0 0.0
2016-Aug-26 15:33N 55°60' E 012°45'0 0.0
2016-Aug-26 14:33N 55°60' E 012°45'0 0.0
2016-Aug-26 13:33N 55°60' E 012°45'0 0.0
2016-Aug-26 12:33N 55°60' E 012°45'4 3.5
2016-Aug-26 11:33N 55°56' E 012°42'1 0.6
2016-Aug-26 10:32N 55°56' E 012°41'1 0.6
2016-Aug-26 09:32N 55°56' E 012°41'0 0.4
2016-Aug-26 08:31N 55°56' E 012°42'0 0.4
2016-Aug-26 07:34N 55°57' E 012°41'0 0.3
2016-Aug-26 06:32N 55°57' E 012°41'3 1.6
2016-Aug-26 04:32N 55°60' E 012°45'0 0.0
2016-Aug-26 03:32N 55°60' E 012°45'0 0.0
2016-Aug-26 02:32N 55°60' E 012°45'0 0.0
2016-Aug-26 01:32N 55°60' E 012°45'0 0.0
2016-Aug-26 00:32N 55°60' E 012°45'0 0.0
2016-Aug-25 23:32N 55°60' E 012°45'0 0.0
2016-Aug-25 22:32N 55°60' E 012°45'0 0.0
2016-Aug-25 21:29N 55°60' E 012°45'0 0.0
2016-Aug-25 20:29N 55°60' E 012°45'0 0.0
2016-Aug-25 19:32N 55°60' E 012°45'0 0.0
2016-Aug-25 18:32N 55°60' E 012°45'0 0.0
2016-Aug-25 17:32N 55°60' E 012°45'0 0.0
2016-Aug-25 16:29N 55°60' E 012°45'0 0.0
2016-Aug-25 15:32N 55°60' E 012°45'0 0.0
2016-Aug-25 14:26N 55°60' E 012°45'0 0.0
2016-Aug-25 13:32N 55°60' E 012°45'0 0.0
2016-Aug-25 12:32N 55°60' E 012°45'0 0.0
2016-Aug-25 11:32N 55°60' E 012°45'0 0.0
2016-Aug-25 10:32N 55°60' E 012°45'0 0.0
2016-Aug-25 09:32N 55°60' E 012°45'0 0.0
2016-Aug-25 08:32N 55°60' E 012°45'0 0.0
2016-Aug-25 07:32N 55°60' E 012°45'0 0.0
2016-Aug-25 06:32N 55°60' E 012°45'0 0.0
2016-Aug-25 04:32N 55°60' E 012°45'0 0.0
2016-Aug-25 03:32N 55°60' E 012°45'0 0.0
2016-Aug-25 02:32N 55°60' E 012°45'0 0.0
2016-Aug-25 01:29N 55°60' E 012°45'0 0.0
2016-Aug-25 00:32N 55°60' E 012°45'0 0.0
2016-Aug-24 23:32N 55°60' E 012°45'0 0.0
2016-Aug-24 22:32N 55°60' E 012°45'0 0.0
2016-Aug-24 21:26N 55°60' E 012°45'0 0.0
2016-Aug-24 20:32N 55°60' E 012°45'0 0.0
2016-Aug-24 19:29N 55°60' E 012°45'0 0.0
2016-Aug-24 18:32N 55°60' E 012°45'0 0.0
2016-Aug-24 17:32N 55°60' E 012°45'0 0.0
2016-Aug-24 16:32N 55°60' E 012°45'0 0.0
2016-Aug-24 15:32N 55°60' E 012°45'0 0.0
2016-Aug-24 14:32N 55°60' E 012°45'0 0.0
2016-Aug-24 13:29N 55°60' E 012°45'0 0.0
2016-Aug-24 12:32N 55°60' E 012°45'0 0.0
2016-Aug-24 11:33N 55°60' E 012°45'0 0.0
2016-Aug-24 10:33N 55°60' E 012°45'0 0.0
2016-Aug-24 09:33N 55°60' E 012°45'0 0.0
2016-Aug-24 08:33N 55°60' E 012°45'0 0.0
2016-Aug-24 07:33N 55°60' E 012°45'0 0.0
2016-Aug-24 06:33N 55°60' E 012°45'0 0.0
2016-Aug-24 04:30N 55°60' E 012°45'0 0.0
2016-Aug-24 03:27N 55°60' E 012°45'0 0.0
2016-Aug-24 02:33N 55°60' E 012°45'0 0.0
2016-Aug-24 01:33N 55°60' E 012°45'0 0.0
2016-Aug-24 00:33N 55°60' E 012°45'0 0.0
2016-Aug-23 23:33N 55°60' E 012°45'0 0.0
2016-Aug-23 22:33N 55°60' E 012°45'0 0.0
2016-Aug-23 21:33N 55°60' E 012°45'0 0.0
2016-Aug-23 20:33N 55°60' E 012°45'0 0.0
2016-Aug-23 19:33N 55°60' E 012°45'0 0.0
2016-Aug-23 18:33N 55°60' E 012°45'0 0.0
2016-Aug-23 17:33N 55°60' E 012°45'0 0.0
2016-Aug-23 16:33N 55°60' E 012°45'0 0.0
2016-Aug-23 15:33N 55°60' E 012°45'0 0.0
2016-Aug-23 14:30N 55°60' E 012°45'0 0.0
2016-Aug-23 13:33N 55°60' E 012°45'0 0.0
2016-Aug-23 12:33N 55°60' E 012°45'0 0.0
2016-Aug-23 11:33N 55°60' E 012°45'0 0.0
2016-Aug-23 10:33N 55°60' E 012°45'0 0.0
2016-Aug-23 09:33N 55°60' E 012°45'0 0.0
2016-Aug-23 08:33N 55°60' E 012°45'0 0.0
2016-Aug-23 07:33N 55°60' E 012°45'0 0.0
2016-Aug-23 06:33N 55°60' E 012°45'0 0.0
2016-Aug-23 05:30N 55°60' E 012°45'0 0.0
2016-Aug-23 04:33N 55°60' E 012°45'0 0.0
2016-Aug-23 03:33N 55°60' E 012°45'0 0.0
2016-Aug-23 02:33N 55°60' E 012°45'0 0.0
2016-Aug-23 01:33N 55°60' E 012°45'0 0.0
2016-Aug-23 00:33N 55°60' E 012°45'0 0.0
2016-Aug-22 23:33N 55°60' E 012°45'0 0.0
2016-Aug-22 22:33N 55°60' E 012°45'0 0.0
2016-Aug-22 21:33N 55°60' E 012°45'0 0.0
2016-Aug-22 20:33N 55°60' E 012°45'0 0.0
2016-Aug-22 19:33N 55°60' E 012°45'0 0.0
2016-Aug-22 18:33N 55°60' E 012°45'0 0.0
2016-Aug-22 17:27N 55°60' E 012°45'0 0.0
2016-Aug-22 16:33N 55°60' E 012°45'0 0.0
2016-Aug-22 15:33N 55°60' E 012°45'0 0.0
2016-Aug-22 14:33N 55°60' E 012°45'0 0.0
2016-Aug-22 13:33N 55°60' E 012°45'0 0.0
2016-Aug-22 12:33N 55°60' E 012°45'0 0.0
2016-Aug-22 11:33N 55°60' E 012°45'0 0.0
2016-Aug-22 10:33N 55°60' E 012°45'0 0.0
2016-Aug-22 09:33N 55°60' E 012°45'0 0.0
2016-Aug-22 08:33N 55°60' E 012°45'0 0.0
2016-Aug-22 07:33N 55°60' E 012°45'0 0.0
2016-Aug-22 06:33N 55°60' E 012°45'0 0.0
2016-Aug-22 05:30N 55°60' E 012°45'0 0.0
2016-Aug-22 04:33N 55°60' E 012°45'0 0.0
2016-Aug-22 03:33N 55°60' E 012°45'0 0.0
2016-Aug-22 02:33N 55°60' E 012°45'0 0.0
2016-Aug-22 01:27N 55°60' E 012°45'0 0.0
2016-Aug-22 00:27N 55°60' E 012°45'0 0.0
2016-Aug-21 23:33N 55°60' E 012°45'0 0.0
2016-Aug-21 22:33N 55°60' E 012°45'  
Track history (hours):
 
Tides and Currents Weather Stations Pressure Air Temp Water Temp Dewpoint Dewpoint Depression Visibility Wind Speed Wind Dir Waves Ship Positions

Siam

Last reported at 2016-Aug-31 22:31 UTC. Time now 2016-Aug-31 23:31 UTC.
Position N 55°60' E 012°45'.

Length 22 m.

Type: Passenger vessel. MMSI: 265572320.

Date/timePositionNaut miles runAvg speedWind from/ knotsBaromVisibWave heightAir tempDewpointWater temp
2016-Aug-31 22:31N 55°60' E 012°45'0 0.0
2016-Aug-31 21:31N 55°60' E 012°45'0 0.0
2016-Aug-31 20:31N 55°60' E 012°45'0 0.0
2016-Aug-31 19:28N 55°60' E 012°45'0 0.0
2016-Aug-31 18:31N 55°60' E 012°45'2 2.2
2016-Aug-31 17:31N 55°59' E 012°41'0 0.4
2016-Aug-31 16:33N 55°58' E 012°41'2 2.4
2016-Aug-31 15:32N 55°56' E 012°42'4 3.8
2016-Aug-31 14:31N 55°60' E 012°45'0 0.0
2016-Aug-31 13:31N 55°60' E 012°45'0 0.0
2016-Aug-31 12:28N 55°60' E 012°45'0 0.0
2016-Aug-31 11:31N 55°60' E 012°45'0 0.0
2016-Aug-31 10:28N 55°60' E 012°45'0 0.0
2016-Aug-31 09:25N 55°60' E 012°45'0 0.0
2016-Aug-31 08:31N 55°60' E 012°45'0 0.0
2016-Aug-31 07:31N 55°60' E 012°45'0 0.0
2016-Aug-31 06:31N 55°60' E 012°45'0 0.0
2016-Aug-31 05:31N 55°60' E 012°45'0 0.0
2016-Aug-31 04:31N 55°60' E 012°45'0 0.0
2016-Aug-31 03:31N 55°60' E 012°45'0 0.0
2016-Aug-31 02:31N 55°60' E 012°45'0 0.0
2016-Aug-31 01:31N 55°60' E 012°45'0 0.0
2016-Aug-31 00:31N 55°60' E 012°45'0 0.0
2016-Aug-30 23:31N 55°60' E 012°45'0 0.0
2016-Aug-30 22:28N 55°60' E 012°45'0 0.0
2016-Aug-30 21:28N 55°60' E 012°45'0 0.0
2016-Aug-30 20:31N 55°60' E 012°45'0 0.0
2016-Aug-30 19:28N 55°60' E 012°45'0 0.0
2016-Aug-30 18:31N 55°60' E 012°45'5 5.3
2016-Aug-30 17:33N 55°54' E 012°44'0 0.2
2016-Aug-30 16:24N 55°54' E 012°44'2 2.0
2016-Aug-30 15:33N 55°56' E 012°42'4 3.6
2016-Aug-30 14:29N 55°60' E 012°45'0 0.0
2016-Aug-30 13:32N 55°60' E 012°45'0 0.0
2016-Aug-30 12:32N 55°60' E 012°45'0 0.0
2016-Aug-30 11:32N 55°60' E 012°45'0 0.0
2016-Aug-30 10:32N 55°60' E 012°45'0 0.0
2016-Aug-30 09:32N 55°60' E 012°45'0 0.0
2016-Aug-30 08:32N 55°60' E 012°45'0 0.0
2016-Aug-30 07:32N 55°60' E 012°45'0 0.0
2016-Aug-30 06:32N 55°60' E 012°45'0 0.0
2016-Aug-30 05:32N 55°60' E 012°45'0 0.0
2016-Aug-30 04:29N 55°60' E 012°45'0 0.0
2016-Aug-30 03:32N 55°60' E 012°45'0 0.0
2016-Aug-30 02:32N 55°60' E 012°45'0 0.0
2016-Aug-30 01:32N 55°60' E 012°45'0 0.0
2016-Aug-30 00:32N 55°60' E 012°45'0 0.0
2016-Aug-29 23:32N 55°60' E 012°45'0 0.0
2016-Aug-29 22:32N 55°60' E 012°45'0 0.0
2016-Aug-29 21:29N 55°60' E 012°45'0 0.0
2016-Aug-29 20:32N 55°60' E 012°45'0 0.0
2016-Aug-29 19:26N 55°60' E 012°45'0 0.0
2016-Aug-29 18:32N 55°60' E 012°45'0 0.0
2016-Aug-29 17:32N 55°60' E 012°45'0 0.0
2016-Aug-29 16:32N 55°60' E 012°45'0 0.0
2016-Aug-29 15:32N 55°60' E 012°45'0 0.0
2016-Aug-29 14:32N 55°60' E 012°45'0 0.0
2016-Aug-29 13:32N 55°60' E 012°45'0 0.0
2016-Aug-29 12:32N 55°60' E 012°45'0 0.0
2016-Aug-29 11:29N 55°60' E 012°45'0 0.0
2016-Aug-29 10:32N 55°60' E 012°45'0 0.0
2016-Aug-29 09:32N 55°60' E 012°45'0 0.0
2016-Aug-29 08:32N 55°60' E 012°45'0 0.0
2016-Aug-29 07:32N 55°60' E 012°45'0 0.0
2016-Aug-29 06:26N 55°60' E 012°45'0 0.0
2016-Aug-29 05:29N 55°60' E 012°45'0 0.0
2016-Aug-29 04:32N 55°60' E 012°45'0 0.0
2016-Aug-29 03:32N 55°60' E 012°45'0 0.0
2016-Aug-29 02:32N 55°60' E 012°45'0 0.0
2016-Aug-29 01:32N 55°60' E 012°45'0 0.0
2016-Aug-29 00:32N 55°60' E 012°45'0 0.0
2016-Aug-28 23:32N 55°60' E 012°45'0 0.0
2016-Aug-28 22:29N 55°60' E 012°45'0 0.0
2016-Aug-28 21:32N 55°60' E 012°45'0 0.0
2016-Aug-28 20:32N 55°60' E 012°45'0 0.0
2016-Aug-28 19:32N 55°60' E 012°45'0 0.0
2016-Aug-28 18:32N 55°60' E 012°45'0 0.0
2016-Aug-28 17:32N 55°60' E 012°45'0 0.0
2016-Aug-28 16:32N 55°60' E 012°45'0 0.0
2016-Aug-28 15:32N 55°60' E 012°45'0 0.0
2016-Aug-28 14:32N 55°60' E 012°45'0 0.0
2016-Aug-28 13:32N 55°60' E 012°45'0 0.0
2016-Aug-28 12:32N 55°60' E 012°45'2 2.5
2016-Aug-28 11:33N 55°59' E 012°40'0 0.5
2016-Aug-28 10:33N 55°59' E 012°41'4 3.9
2016-Aug-28 09:33N 55°55' E 012°40'0 0.2
2016-Aug-28 08:31N 55°55' E 012°39'2 2.3
2016-Aug-28 07:32N 55°56' E 012°43'1 0.6
2016-Aug-28 06:31N 55°57' E 012°42'3 3.4
2016-Aug-28 05:31N 55°60' E 012°45'0 0.0
2016-Aug-28 04:31N 55°60' E 012°45'0 0.0
2016-Aug-28 03:28N 55°60' E 012°45'0 0.0
2016-Aug-28 02:28N 55°60' E 012°45'0 0.0
2016-Aug-28 01:31N 55°60' E 012°45'0 0.0
2016-Aug-28 00:31N 55°60' E 012°45'0 0.0
2016-Aug-27 23:31N 55°60' E 012°45'0 0.0
2016-Aug-27 22:31N 55°60' E 012°45'0 0.0
2016-Aug-27 21:28N 55°60' E 012°45'0 0.0
2016-Aug-27 20:31N 55°60' E 012°45'0 0.0
2016-Aug-27 19:31N 55°60' E 012°45'0 0.0
2016-Aug-27 18:31N 55°60' E 012°45'0 0.0
2016-Aug-27 17:31N 55°60' E 012°45'0 0.0
2016-Aug-27 16:31N 55°60' E 012°45'0 0.0
2016-Aug-27 15:31N 55°60' E 012°45'0 0.0
2016-Aug-27 14:31N 55°60' E 012°45'0 0.0
2016-Aug-27 13:31N 55°60' E 012°45'0 0.0
2016-Aug-27 12:31N 55°60' E 012°45'0 0.0
2016-Aug-27 11:31N 55°60' E 012°45'0 0.0
2016-Aug-27 10:31N 55°60' E 012°45'4 4.0
2016-Aug-27 09:33N 55°56' E 012°42'0 0.2
2016-Aug-27 08:33N 55°56' E 012°42'0 0.3
2016-Aug-27 07:27N 55°56' E 012°42'0 0.4
2016-Aug-27 06:31N 55°56' E 012°42'4 2.0
2016-Aug-27 04:33N 55°60' E 012°45'0 0.0
2016-Aug-27 03:33N 55°60' E 012°45'0 0.0
2016-Aug-27 02:33N 55°60' E 012°45'0 0.0
2016-Aug-27 01:33N 55°60' E 012°45'0 0.0
2016-Aug-27 00:33N 55°60' E 012°45'0 0.0
2016-Aug-26 23:33N 55°60' E 012°45'0 0.0
2016-Aug-26 22:33N 55°60' E 012°45'0 0.0
2016-Aug-26 21:33N 55°60' E 012°45'0 0.0
2016-Aug-26 20:33N 55°60' E 012°45'0 0.0
2016-Aug-26 19:33N 55°60' E 012°45'0 0.0
2016-Aug-26 18:33N 55°60' E 012°45'0 0.0
2016-Aug-26 17:33N 55°60' E 012°45'0 0.0
2016-Aug-26 16:33N 55°60' E 012°45'0 0.0
2016-Aug-26 15:33N 55°60' E 012°45'0 0.0
2016-Aug-26 14:33N 55°60' E 012°45'0 0.0
2016-Aug-26 13:33N 55°60' E 012°45'0 0.0
2016-Aug-26 12:33N 55°60' E 012°45'4 3.5
2016-Aug-26 11:33N 55°56' E 012°42'1 0.6
2016-Aug-26 10:32N 55°56' E 012°41'1 0.6
2016-Aug-26 09:32N 55°56' E 012°41'0 0.4
2016-Aug-26 08:31N 55°56' E 012°42'0 0.4
2016-Aug-26 07:34N 55°57' E 012°41'0 0.3
2016-Aug-26 06:32N 55°57' E 012°41'3 1.6
2016-Aug-26 04:32N 55°60' E 012°45'0 0.0
2016-Aug-26 03:32N 55°60' E 012°45'0 0.0
2016-Aug-26 02:32N 55°60' E 012°45'0 0.0
2016-Aug-26 01:32N 55°60' E 012°45'0 0.0
2016-Aug-26 00:32N 55°60' E 012°45'0 0.0
2016-Aug-25 23:32N 55°60' E 012°45'0 0.0
2016-Aug-25 22:32N 55°60' E 012°45'0 0.0
2016-Aug-25 21:29N 55°60' E 012°45'0 0.0
2016-Aug-25 20:29N 55°60' E 012°45'0 0.0
2016-Aug-25 19:32N 55°60' E 012°45'0 0.0
2016-Aug-25 18:32N 55°60' E 012°45'0 0.0
2016-Aug-25 17:32N 55°60' E 012°45'0 0.0
2016-Aug-25 16:29N 55°60' E 012°45'0 0.0
2016-Aug-25 15:32N 55°60' E 012°45'0 0.0
2016-Aug-25 14:26N 55°60' E 012°45'0 0.0
2016-Aug-25 13:32N 55°60' E 012°45'0 0.0
2016-Aug-25 12:32N 55°60' E 012°45'0 0.0
2016-Aug-25 11:32N 55°60' E 012°45'0 0.0
2016-Aug-25 10:32N 55°60' E 012°45'0 0.0
2016-Aug-25 09:32N 55°60' E 012°45'0 0.0
2016-Aug-25 08:32N 55°60' E 012°45'0 0.0
2016-Aug-25 07:32N 55°60' E 012°45'0 0.0
2016-Aug-25 06:32N 55°60' E 012°45'0 0.0
2016-Aug-25 04:32N 55°60' E 012°45'0 0.0
2016-Aug-25 03:32N 55°60' E 012°45'0 0.0
2016-Aug-25 02:32N 55°60' E 012°45'0 0.0
2016-Aug-25 01:29N 55°60' E 012°45'0 0.0
2016-Aug-25 00:32N 55°60' E 012°45'0 0.0
2016-Aug-24 23:32N 55°60' E 012°45'0 0.0
2016-Aug-24 22:32N 55°60' E 012°45'0 0.0
2016-Aug-24 21:26N 55°60' E 012°45'0 0.0
2016-Aug-24 20:32N 55°60' E 012°45'0 0.0
2016-Aug-24 19:29N 55°60' E 012°45'0 0.0
2016-Aug-24 18:32N 55°60' E 012°45'0 0.0
2016-Aug-24 17:32N 55°60' E 012°45'0 0.0
2016-Aug-24 16:32N 55°60' E 012°45'0 0.0
2016-Aug-24 15:32N 55°60' E 012°45'0 0.0
2016-Aug-24 14:32N 55°60' E 012°45'0 0.0
2016-Aug-24 13:29N 55°60' E 012°45'0 0.0
2016-Aug-24 12:32N 55°60' E 012°45'0 0.0
2016-Aug-24 11:33N 55°60' E 012°45'0 0.0
2016-Aug-24 10:33N 55°60' E 012°45'0 0.0
2016-Aug-24 09:33N 55°60' E 012°45'0 0.0
2016-Aug-24 08:33N 55°60' E 012°45'0 0.0
2016-Aug-24 07:33N 55°60' E 012°45'0 0.0
2016-Aug-24 06:33N 55°60' E 012°45'0 0.0
2016-Aug-24 04:30N 55°60' E 012°45'0 0.0
2016-Aug-24 03:27N 55°60' E 012°45'0 0.0
2016-Aug-24 02:33N 55°60' E 012°45'0 0.0
2016-Aug-24 01:33N 55°60' E 012°45'0 0.0
2016-Aug-24 00:33N 55°60' E 012°45'0 0.0
2016-Aug-23 23:33N 55°60' E 012°45'0 0.0
2016-Aug-23 22:33N 55°60' E 012°45'0 0.0
2016-Aug-23 21:33N 55°60' E 012°45'0 0.0
2016-Aug-23 20:33N 55°60' E 012°45'0 0.0
2016-Aug-23 19:33N 55°60' E 012°45'0 0.0
2016-Aug-23 18:33N 55°60' E 012°45'0 0.0
2016-Aug-23 17:33N 55°60' E 012°45'0 0.0
2016-Aug-23 16:33N 55°60' E 012°45'0 0.0
2016-Aug-23 15:33N 55°60' E 012°45'0 0.0
2016-Aug-23 14:30N 55°60' E 012°45'0 0.0
2016-Aug-23 13:33N 55°60' E 012°45'0 0.0
2016-Aug-23 12:33N 55°60' E 012°45'0 0.0
2016-Aug-23 11:33N 55°60' E 012°45'0 0.0
2016-Aug-23 10:33N 55°60' E 012°45'0 0.0
2016-Aug-23 09:33N 55°60' E 012°45'0 0.0
2016-Aug-23 08:33N 55°60' E 012°45'0 0.0
2016-Aug-23 07:33N 55°60' E 012°45'0 0.0
2016-Aug-23 06:33N 55°60' E 012°45'0 0.0
2016-Aug-23 05:30N 55°60' E 012°45'0 0.0
2016-Aug-23 04:33N 55°60' E 012°45'0 0.0
2016-Aug-23 03:33N 55°60' E 012°45'0 0.0
2016-Aug-23 02:33N 55°60' E 012°45'0 0.0
2016-Aug-23 01:33N 55°60' E 012°45'0 0.0
2016-Aug-23 00:33N 55°60' E 012°45'0 0.0
2016-Aug-22 23:33N 55°60' E 012°45'0 0.0
2016-Aug-22 22:33N 55°60' E 012°45'0 0.0
2016-Aug-22 21:33N 55°60' E 012°45'0 0.0
2016-Aug-22 20:33N 55°60' E 012°45'0 0.0
2016-Aug-22 19:33N 55°60' E 012°45'0 0.0
2016-Aug-22 18:33N 55°60' E 012°45'0 0.0
2016-Aug-22 17:27N 55°60' E 012°45'0 0.0
2016-Aug-22 16:33N 55°60' E 012°45'0 0.0
2016-Aug-22 15:33N 55°60' E 012°45'0 0.0
2016-Aug-22 14:33N 55°60' E 012°45'0 0.0
2016-Aug-22 13:33N 55°60' E 012°45'0 0.0
2016-Aug-22 12:33N 55°60' E 012°45'0 0.0
2016-Aug-22 11:33N 55°60' E 012°45'0 0.0
2016-Aug-22 10:33N 55°60' E 012°45'0 0.0
2016-Aug-22 09:33N 55°60' E 012°45'0 0.0
2016-Aug-22 08:33N 55°60' E 012°45'0 0.0
2016-Aug-22 07:33N 55°60' E 012°45'0 0.0
2016-Aug-22 06:33N 55°60' E 012°45'0 0.0
2016-Aug-22 05:30N 55°60' E 012°45'0 0.0
2016-Aug-22 04:33N 55°60' E 012°45'0 0.0
2016-Aug-22 03:33N 55°60' E 012°45'0 0.0
2016-Aug-22 02:33N 55°60' E 012°45'0 0.0
2016-Aug-22 01:27N 55°60' E 012°45'0 0.0
2016-Aug-22 00:27N 55°60' E 012°45'0 0.0
2016-Aug-21 23:33N 55°60' E 012°45'0 0.0
2016-Aug-21 22:33N 55°60' E 012°45'  

Dump ship's entire track history